hwlogo.jpg (8581 bytes)
Home Your Weather Products Services Weather On Your Site Contact
HW Version Logo
Weather Info
Your Weather (Options)
Canadian Weather
International Weather
Enter your " Place, State", US Zip Code or ICAO:  
Forecast Information Radar Information
La Ronge, Saskatchewan, Canada  Lat: 55.15N, Lon: 105.27W
ICAO Used: CYVC
Current Conditions
Updated: 9:00 AM CST TUE FEB 20 2018
Sun & Moon Information
Light Snow
Light Snow
Temp: -22°C
Humidity: 76%
Wind Speed: NNW 13 MPH G 20
Barometer: 1015 mb
Dewpoint: -25°C
Heat Index: -22°C
Wind Chill: -33°C
Civil Twilight: 7:36 AM CST Moon Phase:
Waxing Crescent Moon
Sunrise: 8:13 AM CST
Sunset: 6:15 PM CST
Civil Twilight: 6:53 PM CST
Forecast for La Ronge, SK:
(Forecast based on TAF for )
0739 AM CST TUE FEB 20 2018
  
MORNING AFTERNOON EVENING OVERNIGHT
Fair Fair Partly
Cloudy
Partly
Cloudy
ZoneCast:
Dated: 0739 AM CST TUE FEB 20 2018
Morning...Becoming fair with winds from the northwest at 9 mph.

Afternoon...Fair with winds from the northwest at 9 mph. Turning partly cloudy with winds from the northwest at 14 mph.

Evening...Partly cloudy with winds from the northwest at 14 mph.

Overnight...Partly cloudy with winds from the northwest at 14 mph.

Original Encoded TAF:
Dated: 0739 AM CST TUE FEB 20 2018
2018/02/20 13:39
TAF CYVC 201238Z 2013/2101 VRB03KT P6SM BKN060 
      TEMPO 2013/2018 4SM -SN BKN020 
      BECMG 2013/2015 32008KT 
     FM201800 31012KT P6SM SCT030 
      RMK NXT FCST BY 201900Z